createdAt,value
2016-09-02T00:00:22.491Z,1102.45
2016-09-02T00:01:21.640Z,1102.08
2016-09-02T00:02:21.626Z,1102.07
2016-09-02T00:03:21.636Z,1101.79
2016-09-02T00:04:21.627Z,1101.54
2016-09-02T00:05:21.655Z,1101.62
2016-09-02T00:06:21.635Z,1101.03
2016-09-02T00:07:21.639Z,1101
2016-09-02T00:08:21.642Z,1101.09
2016-09-02T00:09:21.655Z,1100.84
2016-09-02T00:10:21.644Z,1100.62
2016-09-02T00:11:21.644Z,1100.48
2016-09-02T00:12:21.641Z,1100.47
2016-09-02T00:13:21.662Z,1100.39
2016-09-02T00:14:21.657Z,1100.08
2016-09-02T00:15:21.669Z,1100.13
2016-09-02T00:16:21.661Z,1099.7
2016-09-02T00:17:21.781Z,1099.27
2016-09-02T00:18:21.670Z,1099.35
2016-09-02T00:19:21.745Z,1099.29
2016-09-02T00:20:21.644Z,1099.06
2016-09-02T00:21:21.677Z,1098.81
2016-09-02T00:22:21.659Z,1098.69
2016-09-02T00:23:21.644Z,1098.6
2016-09-02T00:24:21.750Z,1098.5
2016-09-02T00:25:21.699Z,1098.15
2016-09-02T00:26:21.809Z,1098.32
2016-09-02T00:27:21.881Z,1098.17
2016-09-02T00:28:21.692Z,1097.8
2016-09-02T00:29:21.791Z,1097.66
2016-09-02T00:30:21.887Z,1097.52
2016-09-02T00:31:21.789Z,1097.47
2016-09-02T00:32:21.931Z,1097.37
2016-09-02T00:33:21.657Z,1097.34
2016-09-02T00:34:21.820Z,1097.06
2016-09-02T00:35:21.663Z,1097.13
2016-09-02T00:36:21.669Z,1097.07
2016-09-02T00:37:21.655Z,1096.93
2016-09-02T00:38:21.845Z,1096.48
2016-09-02T00:39:21.660Z,1096.46
2016-09-02T00:40:21.656Z,1096.42
2016-09-02T00:41:21.677Z,1095.97
2016-09-02T00:42:21.658Z,1096.09
2016-09-02T00:43:21.676Z,1095.62
2016-09-02T00:44:21.675Z,1095.28
2016-09-02T00:45:21.675Z,1094.91
2016-09-02T00:46:21.705Z,1094.36
2016-09-02T00:47:21.672Z,1094.11
2016-09-02T00:48:21.680Z,1093.48
2016-09-02T00:49:21.682Z,1092.75
2016-09-02T00:50:21.694Z,1092.26
2016-09-02T00:51:21.735Z,1091.79
2016-09-02T00:52:21.672Z,1091.17
2016-09-02T00:53:21.673Z,1090.81
2016-09-02T00:54:21.685Z,1090.49
2016-09-02T00:55:21.687Z,1089.62
2016-09-02T00:56:21.677Z,1089.03
2016-09-02T00:57:21.685Z,1088.75
2016-09-02T00:58:21.685Z,1088.33
2016-09-02T00:59:21.705Z,1087.78
2016-09-02T01:00:21.703Z,1087.7
2016-09-02T01:01:21.681Z,1087.46
2016-09-02T01:02:21.731Z,1087.07
2016-09-02T01:03:21.691Z,1087.06
2016-09-02T01:04:21.702Z,1086.73
2016-09-02T01:05:21.709Z,1086.5
2016-09-02T01:06:21.687Z,1086.05
2016-09-02T01:07:21.689Z,1086.26
2016-09-02T01:08:21.751Z,1085.94
2016-09-02T01:09:21.691Z,1086.06
2016-09-02T01:10:21.695Z,1086.05
2016-09-02T01:11:21.708Z,1085.96
2016-09-02T01:12:21.705Z,1086.05
2016-09-02T01:13:21.696Z,1085.77
2016-09-02T01:14:21.702Z,1085.96
2016-09-02T01:15:21.695Z,1085.82
2016-09-02T01:16:21.704Z,1085.64
2016-09-02T01:17:21.703Z,1085.7
2016-09-02T01:18:21.689Z,1085.62
2016-09-02T01:19:21.689Z,1085.54
2016-09-02T01:20:21.706Z,1085.7
2016-09-02T01:21:21.712Z,1085.71
2016-09-02T01:22:21.701Z,1085.52
2016-09-02T01:23:21.725Z,1085.61
2016-09-02T01:24:21.695Z,1085.53
2016-09-02T01:25:21.769Z,1085.17
2016-09-02T01:26:21.844Z,1085.27
2016-09-02T01:27:21.921Z,1085.17
2016-09-02T01:28:21.867Z,1085.05
2016-09-02T01:29:21.873Z,1084.84
2016-09-02T01:30:21.781Z,1084.62
2016-09-02T01:31:21.703Z,1084.71
2016-09-02T01:32:21.722Z,1084.32
2016-09-02T01:33:21.714Z,1084.07
2016-09-02T01:34:21.709Z,1083.97
2016-09-02T01:35:21.870Z,1083.63
2016-09-02T01:36:21.720Z,1083.35
2016-09-02T01:37:21.710Z,1083.25
2016-09-02T01:38:22.005Z,1083.09
2016-09-02T01:39:21.793Z,1082.8
2016-09-02T01:40:21.731Z,1082.44
2016-09-02T01:41:21.720Z,1082.46
2016-09-02T01:42:21.727Z,1082.4
2016-09-02T01:43:21.721Z,1082.19
2016-09-02T01:44:21.704Z,1082.05
2016-09-02T01:45:21.721Z,1082
2016-09-02T01:46:21.712Z,1082.15
2016-09-02T01:47:21.718Z,1082.04
2016-09-02T01:48:21.719Z,1081.69
2016-09-02T01:49:21.717Z,1082.17
2016-09-02T01:50:21.787Z,1082.06
2016-09-02T01:51:21.720Z,1082.19
2016-09-02T01:52:21.727Z,1081.94
2016-09-02T01:53:21.737Z,1081.89
2016-09-02T01:54:21.725Z,1081.74
2016-09-02T01:55:21.883Z,1081.64
2016-09-02T01:56:21.726Z,1081.46
2016-09-02T01:57:21.729Z,1081.43
2016-09-02T01:58:21.741Z,1081.14
2016-09-02T01:59:21.727Z,1081.31
2016-09-02T02:00:21.727Z,1080.73
2016-09-02T02:01:21.734Z,1080.95
2016-09-02T02:02:21.724Z,1080.78
2016-09-02T02:03:21.741Z,1080.75
2016-09-02T02:04:21.723Z,1080.53
2016-09-02T02:05:21.745Z,1080.53
2016-09-02T02:06:21.736Z,1080.15
2016-09-02T02:07:21.736Z,1080.04
2016-09-02T02:08:21.743Z,1079.58
2016-09-02T02:09:21.738Z,1079.45
2016-09-02T02:10:21.750Z,1079.08
2016-09-02T02:11:21.743Z,1078.51
2016-09-02T02:12:21.734Z,1078.28
2016-09-02T02:13:21.741Z,1077.96
2016-09-02T02:14:21.751Z,1077.39
2016-09-02T02:15:21.746Z,1077.18
2016-09-02T02:16:21.739Z,1076.68
2016-09-02T02:17:21.760Z,1076.47
2016-09-02T02:18:21.739Z,1076.27
2016-09-02T02:19:21.745Z,1075.82
2016-09-02T02:20:21.737Z,1075.48
2016-09-02T02:21:21.764Z,1074.66
2016-09-02T02:22:21.752Z,1074.38
2016-09-02T02:23:21.741Z,1073.95
2016-09-02T02:24:21.751Z,1073.31
2016-09-02T02:25:21.757Z,1073.1
2016-09-02T02:26:21.765Z,1073.04
2016-09-02T02:27:21.754Z,1072.69
2016-09-02T02:28:21.754Z,1072.43
2016-09-02T02:29:21.753Z,1071.96
2016-09-02T02:30:21.763Z,1071.88
2016-09-02T02:31:21.754Z,1071.94
2016-09-02T02:32:21.747Z,1072.06
2016-09-02T02:33:21.751Z,1071.95
2016-09-02T02:34:21.755Z,1072.27
2016-09-02T02:35:21.752Z,1072.59
2016-09-02T02:36:21.769Z,1072.76
2016-09-02T02:37:21.772Z,1072.64
2016-09-02T02:38:21.768Z,1072.88
2016-09-02T02:39:21.757Z,1073.26
2016-09-02T02:40:21.767Z,1073.64
2016-09-02T02:41:21.754Z,1073.87
2016-09-02T02:42:21.758Z,1073.91
2016-09-02T02:43:21.755Z,1074.23
2016-09-02T02:44:21.771Z,1074.47
2016-09-02T02:45:21.769Z,1075.18
2016-09-02T02:46:21.773Z,1075.38
2016-09-02T02:47:21.807Z,1075.69
2016-09-02T02:48:21.757Z,1076.07
2016-09-02T02:49:21.775Z,1076.05
2016-09-02T02:50:21.773Z,1076.22
2016-09-02T02:51:21.775Z,1076.46
2016-09-02T02:52:21.770Z,1076.81
2016-09-02T02:53:21.772Z,1077.03
2016-09-02T02:54:21.773Z,1077.43
2016-09-02T02:55:21.789Z,1077.52
2016-09-02T02:56:22.256Z,1077.81
2016-09-02T02:57:21.788Z,1077.9
2016-09-02T02:58:22.013Z,1077.95
2016-09-02T02:59:21.914Z,1078.02
2016-09-02T03:00:22.024Z,1078.3
2016-09-02T03:01:21.997Z,1078.4
2016-09-02T03:02:21.834Z,1078.38
2016-09-02T03:03:21.774Z,1078.19
2016-09-02T03:04:21.810Z,1078.25
2016-09-02T03:05:21.786Z,1078.4
2016-09-02T03:06:21.789Z,1078.41
2016-09-02T03:07:21.785Z,1078.47
2016-09-02T03:08:21.789Z,1078.65
2016-09-02T03:09:21.787Z,1078.51
2016-09-02T03:10:21.784Z,1078.58
2016-09-02T03:11:21.837Z,1078.61
2016-09-02T03:12:21.783Z,1078.35
2016-09-02T03:13:21.791Z,1078.51
2016-09-02T03:14:21.783Z,1078.7
2016-09-02T03:15:21.796Z,1078.82
2016-09-02T03:16:21.796Z,1079.21
2016-09-02T03:17:21.803Z,1079.28
2016-09-02T03:18:21.791Z,1079.49
2016-09-02T03:19:21.791Z,1080.02
2016-09-02T03:20:21.805Z,1080.33
2016-09-02T03:21:21.790Z,1080.42
2016-09-02T03:22:21.801Z,1080.53
2016-09-02T03:23:21.786Z,1081.18
2016-09-02T03:24:21.951Z,1081.15
2016-09-02T03:25:21.808Z,1081.37
2016-09-02T03:26:21.807Z,1081.37
2016-09-02T03:27:21.798Z,1081.48
2016-09-02T03:28:21.800Z,1081.56
2016-09-02T03:29:21.807Z,1081.88
2016-09-02T03:30:21.816Z,1082.16
2016-09-02T03:31:21.802Z,1082.12
2016-09-02T03:32:21.807Z,1081.97
2016-09-02T03:33:21.800Z,1081.73
2016-09-02T03:34:21.822Z,1082.06
2016-09-02T03:35:21.799Z,1081.73
2016-09-02T03:36:21.805Z,1081.43
2016-09-02T03:37:21.799Z,1081.1
2016-09-02T03:38:21.804Z,1080.72
2016-09-02T03:39:21.817Z,1080.51
2016-09-02T03:40:21.803Z,1079.78
2016-09-02T03:41:21.827Z,1079.36
2016-09-02T03:42:21.817Z,1078.68
2016-09-02T03:43:21.820Z,1078.32
2016-09-02T03:44:21.819Z,1077.83
2016-09-02T03:45:21.808Z,1077.37
2016-09-02T03:46:21.820Z,1076.98
2016-09-02T03:47:21.819Z,1075.99
2016-09-02T03:48:21.826Z,1075.36
2016-09-02T03:49:21.821Z,1074.63
2016-09-02T03:50:21.829Z,1074.06
2016-09-02T03:51:21.830Z,1073.2
2016-09-02T03:52:21.813Z,1073.25
2016-09-02T03:53:21.816Z,1072.63
2016-09-02T03:54:21.819Z,1072.23
2016-09-02T03:55:21.831Z,1071.65
2016-09-02T03:56:21.826Z,1071.25
2016-09-02T03:57:21.883Z,1070.74
2016-09-02T03:58:21.836Z,1070.38
2016-09-02T03:59:21.831Z,1070.07
2016-09-02T04:00:21.881Z,1069.38
2016-09-02T04:01:21.826Z,1069.04
2016-09-02T04:02:21.835Z,1068.99
2016-09-02T04:03:21.829Z,1068.64
2016-09-02T04:04:21.833Z,1068.11
2016-09-02T04:05:21.824Z,1068.1
2016-09-02T04:06:21.867Z,1067.73
2016-09-02T04:07:21.825Z,1067.42
2016-09-02T04:08:21.842Z,1067.19
2016-09-02T04:09:21.836Z,1066.97
2016-09-02T04:10:21.843Z,1066.81
2016-09-02T04:11:21.838Z,1066.42
2016-09-02T04:12:21.844Z,1066.14
2016-09-02T04:13:21.859Z,1065.98
2016-09-02T04:14:21.849Z,1065.95
2016-09-02T04:15:21.831Z,1065.64
2016-09-02T04:16:21.840Z,1065.62
2016-09-02T04:17:21.850Z,1065.23
2016-09-02T04:18:21.838Z,1064.89
2016-09-02T04:19:21.853Z,1064.54
2016-09-02T04:20:21.837Z,1064.47
2016-09-02T04:21:21.854Z,1064.15
2016-09-02T04:22:21.884Z,1063.88
2016-09-02T04:23:21.839Z,1063.91
2016-09-02T04:24:21.858Z,1064.12
2016-09-02T04:25:21.846Z,1063.9
2016-09-02T04:26:21.853Z,1064.42
2016-09-02T04:27:21.851Z,1064.32
2016-09-02T04:28:21.850Z,1065.01
2016-09-02T04:29:21.853Z,1065.28
2016-09-02T04:30:21.870Z,1065.66
2016-09-02T04:31:21.859Z,1065.78
2016-09-02T04:32:21.872Z,1066.31
2016-09-02T04:33:21.850Z,1066.97
2016-09-02T04:34:21.881Z,1067.34
2016-09-02T04:35:21.849Z,1067.94
2016-09-02T04:36:21.856Z,1067.88
2016-09-02T04:37:21.849Z,1068.87
2016-09-02T04:38:21.855Z,1068.79
2016-09-02T04:39:21.870Z,1069.09
2016-09-02T04:40:21.864Z,1069.27
2016-09-02T04:41:21.875Z,1069.19
2016-09-02T04:42:21.867Z,1069.45
2016-09-02T04:43:21.869Z,1069.58
2016-09-02T04:44:21.869Z,1069.45
2016-09-02T04:45:21.875Z,1069.31
2016-09-02T04:46:21.887Z,1069.54
2016-09-02T04:47:21.875Z,1069.8
2016-09-02T04:48:21.866Z,1069.61
2016-09-02T04:49:21.864Z,1069.47
2016-09-02T04:50:21.868Z,1069.47
2016-09-02T04:51:21.871Z,1069.36
2016-09-02T04:52:21.882Z,1069.47
2016-09-02T04:53:21.887Z,1069.68
2016-09-02T04:54:21.880Z,1069.88
2016-09-02T04:55:21.890Z,1069.71
2016-09-02T04:56:21.884Z,1069.47
2016-09-02T04:57:21.895Z,1069.64
2016-09-02T04:58:21.907Z,1069.51
2016-09-02T04:59:21.874Z,1069.46
2016-09-02T05:00:22.077Z,1069.63
2016-09-02T05:01:21.958Z,1069.78
2016-09-02T05:02:22.006Z,1069.97
2016-09-02T05:03:22.149Z,1070.1
2016-09-02T05:04:21.882Z,1070.23
2016-09-02T05:05:21.929Z,1070.9
2016-09-02T05:06:21.883Z,1071.11
2016-09-02T05:07:21.890Z,1071.37
2016-09-02T05:08:21.883Z,1071.6
2016-09-02T05:09:21.883Z,1071.97
2016-09-02T05:10:21.938Z,1072.42
2016-09-02T05:11:21.913Z,1072.72
2016-09-02T05:12:21.892Z,1072.99
2016-09-02T05:13:21.885Z,1073.56
2016-09-02T05:14:21.890Z,1074.17
2016-09-02T05:15:21.896Z,1075.15
2016-09-02T05:16:21.903Z,1075.7
2016-09-02T05:17:21.898Z,1076.39
2016-09-02T05:18:21.889Z,1077.14
2016-09-02T05:19:21.901Z,1077.41
2016-09-02T05:20:21.903Z,1077.79
2016-09-02T05:21:21.894Z,1078.35
2016-09-02T05:22:21.896Z,1078.63
2016-09-02T05:23:21.897Z,1079.17
2016-09-02T05:24:21.899Z,1079.49
2016-09-02T05:25:21.907Z,1079.8
2016-09-02T05:26:21.899Z,1080.07
2016-09-02T05:27:21.904Z,1080.7
2016-09-02T05:28:21.913Z,1080.96
2016-09-02T05:29:21.918Z,1081.48
2016-09-02T05:30:21.929Z,1082.24
2016-09-02T05:31:21.931Z,1083.68
2016-09-02T05:32:21.926Z,1085.39
2016-09-02T05:33:21.907Z,1086.75
2016-09-02T05:34:21.974Z,1088.49
2016-09-02T05:35:21.998Z,1090.29
2016-09-02T05:36:21.953Z,1092.06
2016-09-02T05:37:21.914Z,1094.02
2016-09-02T05:38:21.919Z,1095.83
2016-09-02T05:39:21.944Z,1098.09
2016-09-02T05:40:22.267Z,1099.56
2016-09-02T05:41:21.934Z,1102.06
2016-09-02T05:42:21.947Z,1104.13
2016-09-02T05:43:24.336Z,1105.89
2016-09-02T05:44:22.100Z,1107.69
2016-09-02T05:45:21.919Z,1109.58
2016-09-02T05:46:21.927Z,1111.44
2016-09-02T05:47:21.920Z,1113.22
2016-09-02T05:48:21.911Z,1114.93
2016-09-02T05:49:21.916Z,1116.66
2016-09-02T05:50:21.911Z,1118.38
2016-09-02T05:51:21.915Z,1119.73
2016-09-02T05:52:21.922Z,1120.71
2016-09-02T05:53:21.915Z,1122.29
2016-09-02T05:54:22.345Z,1123.42
2016-09-02T05:55:21.933Z,1124.77
2016-09-02T05:56:21.940Z,1125.79
2016-09-02T05:57:21.927Z,1126.75
2016-09-02T05:58:34.491Z,1127.64
2016-09-02T05:59:22.005Z,1128.59
2016-09-02T06:00:21.990Z,1129.44
2016-09-02T06:01:22.045Z,1129.98
2016-09-02T06:02:22.051Z,1131.1
2016-09-02T06:03:22.050Z,1131.78
2016-09-02T06:04:22.057Z,1132.74
2016-09-02T06:05:21.934Z,1133.41
2016-09-02T06:06:21.945Z,1134.03
2016-09-02T06:07:21.948Z,1134.5
2016-09-02T06:08:21.974Z,1134.82
2016-09-02T06:09:21.933Z,1135
2016-09-02T06:10:21.939Z,1135.39
2016-09-02T06:11:21.936Z,1135.88
2016-09-02T06:12:21.939Z,1136.33
2016-09-02T06:13:21.947Z,1136.78
2016-09-02T06:14:21.951Z,1137.6
2016-09-02T06:15:21.946Z,1138.08
2016-09-02T06:16:21.946Z,1138.64
2016-09-02T06:17:21.939Z,1139.35
2016-09-02T06:18:21.944Z,1139.92
2016-09-02T06:19:21.948Z,1140.92
2016-09-02T06:20:21.950Z,1141.71
2016-09-02T06:21:21.945Z,1143
2016-09-02T06:22:21.951Z,1144.18
2016-09-02T06:23:21.953Z,1145.18
2016-09-02T06:24:21.963Z,1146.26
2016-09-02T06:25:21.963Z,1147.37
2016-09-02T06:26:21.958Z,1148.39
2016-09-02T06:27:21.952Z,1149.46
2016-09-02T06:28:21.983Z,1150.5
2016-09-02T06:29:22.083Z,1151.67
2016-09-02T06:30:21.951Z,1152.71
2016-09-02T06:31:21.977Z,1153.69
2016-09-02T06:32:21.950Z,1154.79
2016-09-02T06:33:21.969Z,1155.8
2016-09-02T06:34:21.949Z,1156.73
2016-09-02T06:35:21.966Z,1157.69
2016-09-02T06:36:21.958Z,1158.57
2016-09-02T06:37:21.963Z,1159.28
2016-09-02T06:38:21.969Z,1160.13
2016-09-02T06:39:21.991Z,1160.86
2016-09-02T06:40:21.975Z,1161.42
2016-09-02T06:41:21.967Z,1162.02
2016-09-02T06:42:21.967Z,1162.77
2016-09-02T06:43:21.981Z,1163.29
2016-09-02T06:44:21.995Z,1163.8
2016-09-02T06:45:21.997Z,1164.26
2016-09-02T06:46:22.013Z,1164.6
2016-09-02T06:47:21.986Z,1164.85
2016-09-02T06:48:21.987Z,1165.1
2016-09-02T06:49:21.969Z,1165.22
2016-09-02T06:50:21.967Z,1165.3
2016-09-02T06:51:21.978Z,1165.37
2016-09-02T06:52:21.964Z,1165.32
2016-09-02T06:53:21.982Z,1165.21
2016-09-02T06:54:21.985Z,1165.06
2016-09-02T06:55:22.025Z,1164.91
2016-09-02T06:56:21.978Z,1164.85
2016-09-02T06:57:21.970Z,1164.71
2016-09-02T06:58:21.977Z,1164.61
2016-09-02T06:59:21.994Z,1164.55
2016-09-02T07:00:21.981Z,1164.46
2016-09-02T07:01:21.999Z,1164.33
2016-09-02T07:02:21.993Z,1164.17
2016-09-02T07:03:21.983Z,1163.96
2016-09-02T07:04:21.979Z,1163.82
2016-09-02T07:05:21.997Z,1163.62
2016-09-02T07:06:21.979Z,1163.45
2016-09-02T07:07:21.977Z,1163.24
2016-09-02T07:08:21.993Z,1162.99
2016-09-02T07:09:21.985Z,1162.82
2016-09-02T07:10:21.999Z,1162.5
2016-09-02T07:11:21.992Z,1162.19
2016-09-02T07:12:21.997Z,1161.77
2016-09-02T07:13:21.994Z,1161.41
2016-09-02T07:14:22.008Z,1161.05
2016-09-02T07:15:22.001Z,1160.62
2016-09-02T07:16:22.022Z,1160.23
2016-09-02T07:17:22.008Z,1159.88
2016-09-02T07:18:22.013Z,1159.44
2016-09-02T07:19:22.008Z,1158.92
2016-09-02T07:20:22.053Z,1158.26
2016-09-02T07:21:22.009Z,1157.67
2016-09-02T07:22:22.000Z,1157.23
2016-09-02T07:23:22.017Z,1156.69
2016-09-02T07:24:22.010Z,1156.07
2016-09-02T07:25:22.010Z,1155.55
2016-09-02T07:26:22.002Z,1154.98
2016-09-02T07:27:22.000Z,1154.39
2016-09-02T07:28:22.006Z,1153.8
2016-09-02T07:29:22.014Z,1153.28
2016-09-02T07:30:22.007Z,1152.89
2016-09-02T07:31:21.998Z,1152.44
2016-09-02T07:32:22.008Z,1152.15
2016-09-02T07:33:22.101Z,1151.86
2016-09-02T07:34:22.032Z,1151.63
2016-09-02T07:35:23.373Z,1151.07
2016-09-02T07:36:22.039Z,1150.75
2016-09-02T07:37:22.020Z,1150.48
2016-09-02T07:38:22.039Z,1149.8
2016-09-02T07:39:22.015Z,1149.19
2016-09-02T07:40:22.032Z,1148.24
2016-09-02T07:41:22.017Z,1147.43
2016-09-02T07:42:22.030Z,1146.42
2016-09-02T07:43:22.025Z,1145.27
2016-09-02T07:44:22.032Z,1143.81
2016-09-02T07:45:22.018Z,1142.39
2016-09-02T07:46:22.026Z,1141.1
2016-09-02T07:47:22.042Z,1139.4
2016-09-02T07:48:22.031Z,1137.35
2016-09-02T07:49:22.094Z,1135.37
2016-09-02T07:50:22.062Z,1133.34
2016-09-02T07:51:22.023Z,1131.26
2016-09-02T07:52:22.044Z,1129.33
2016-09-02T07:53:22.042Z,1127.05
2016-09-02T07:54:22.028Z,1124.91
2016-09-02T07:55:22.050Z,1122.87
2016-09-02T07:56:22.044Z,1120.62
2016-09-02T07:57:22.036Z,1118.33
2016-09-02T07:58:22.041Z,1116.2
2016-09-02T07:59:22.103Z,1114.08
2016-09-02T08:00:22.048Z,1111.74
2016-09-02T08:01:22.063Z,1110.41
2016-09-02T08:02:22.360Z,1109.56
2016-09-02T08:03:22.253Z,1108.99
2016-09-02T08:04:22.054Z,1108.86
2016-09-02T08:05:22.106Z,1108.94
2016-09-02T08:06:22.079Z,1109.49
2016-09-02T08:07:22.167Z,1110.12
2016-09-02T08:08:22.049Z,1110.47
2016-09-02T08:09:22.053Z,1111.01
2016-09-02T08:10:22.064Z,1110.91
2016-09-02T08:11:22.050Z,1111.24
2016-09-02T08:12:22.047Z,1111.36
2016-09-02T08:13:22.071Z,1111.75
2016-09-02T08:14:22.062Z,1111.67
2016-09-02T08:15:22.055Z,1111.42
2016-09-02T08:16:22.045Z,1111.06
2016-09-02T08:17:22.049Z,1111.01
2016-09-02T08:18:22.057Z,1110.97
2016-09-02T08:19:22.054Z,1110.89
2016-09-02T08:20:22.437Z,1110.22
2016-09-02T08:21:22.055Z,1108.97
2016-09-02T08:22:22.060Z,1107.47
2016-09-02T08:23:22.085Z,1106.23
2016-09-02T08:24:22.057Z,1105.58
2016-09-02T08:25:22.439Z,1105.65
2016-09-02T08:26:22.089Z,1106.04
2016-09-02T08:27:22.058Z,1106.36
2016-09-02T08:28:22.081Z,1106.24
2016-09-02T08:29:22.075Z,1106.03
2016-09-02T08:30:22.078Z,1105.45
2016-09-02T08:31:22.068Z,1104.97
2016-09-02T08:32:22.075Z,1104.05
2016-09-02T08:33:22.078Z,1102.97
2016-09-02T08:34:22.102Z,1102.14
2016-09-02T08:35:22.088Z,1101.4
2016-09-02T08:36:22.074Z,1100.98
2016-09-02T08:37:22.089Z,1100.86
2016-09-02T08:38:22.104Z,1100.24
2016-09-02T08:39:22.105Z,1100.22
2016-09-02T08:40:22.094Z,1100.54
2016-09-02T08:41:22.088Z,1100.62
2016-09-02T08:42:22.090Z,1100.2
2016-09-02T08:43:22.090Z,1099.6
2016-09-02T08:44:22.079Z,1099.27
2016-09-02T08:45:22.096Z,1098.9
2016-09-02T08:46:22.107Z,1098.44
2016-09-02T08:47:22.085Z,1098.16
2016-09-02T08:48:22.092Z,1098.76
2016-09-02T08:49:22.089Z,1098.86
2016-09-02T08:50:34.237Z,1099.09
2016-09-02T08:51:22.106Z,1098.41
2016-09-02T08:52:33.612Z,1098.57
2016-09-02T08:53:27.659Z,1098.51
2016-09-02T08:54:38.834Z,1098.22
2016-09-02T08:55:39.218Z,1098.36
2016-09-02T08:56:39.800Z,1098.57
2016-09-02T08:58:02.953Z,1098.71
2016-09-02T08:58:57.581Z,1098.28
2016-09-02T09:00:06.420Z,1098.47
2016-09-02T09:01:29.826Z,1098.84
2016-09-02T09:02:54.881Z,1098.95
2016-09-02T09:04:18.176Z,1098.65
2016-09-02T09:05:39.760Z,1098.11
2016-09-02T09:07:01.707Z,1096.36
2016-09-02T09:08:26.082Z,1093.85
2016-09-02T09:09:53.327Z,1091.68
2016-09-02T09:11:18.386Z,1089.4
2016-09-02T09:12:39.794Z,1087.98
2016-09-02T09:14:05.423Z,1085.95
2016-09-02T09:15:29.551Z,1084.75
2016-09-02T09:16:53.253Z,1084.16
2016-09-02T09:18:16.982Z,1084.19
2016-09-02T09:19:39.397Z,1083.86
2016-09-02T09:20:58.888Z,1084.11
2016-09-02T09:22:20.763Z,1084.18
2016-09-02T09:23:42.977Z,1083.69
2016-09-02T09:25:07.745Z,1083.72
2016-09-02T09:26:31.703Z,1083.98
2016-09-02T09:27:54.632Z,1084.56
2016-09-02T09:29:16.887Z,1085.18
2016-09-02T09:30:38.384Z,1085.98
2016-09-02T09:32:02.790Z,1086.66
2016-09-02T09:33:29.794Z,1087.16
2016-09-02T09:34:53.655Z,1087.76
2016-09-02T09:36:15.788Z,1088.07
2016-09-02T09:37:22.080Z,1087.88
2016-09-02T09:38:43.582Z,1087.99
2016-09-02T09:40:03.239Z,1087.76
2016-09-02T09:41:27.185Z,1086.91
2016-09-02T09:42:49.961Z,1085.71
2016-09-02T09:44:12.553Z,1084.93
2016-09-02T09:45:36.238Z,1083.16
2016-09-02T09:47:00.469Z,1080.89
2016-09-02T09:48:24.362Z,1078.91
2016-09-02T09:49:45.758Z,1077.63
2016-09-02T09:51:06.822Z,1075.8
2016-09-02T09:52:30.038Z,1074.11
2016-09-02T09:53:51.820Z,1074.1
2016-09-02T09:55:15.007Z,1074.14
2016-09-02T09:56:36.855Z,1073.71
2016-09-02T09:58:01.116Z,1071.13
2016-09-02T09:59:25.979Z,1071.16
2016-09-02T10:00:23.579Z,1070.09
2016-09-02T10:01:53.983Z,1069.81
2016-09-02T10:03:30.919Z,1068.77
2016-09-02T10:04:30.754Z,1068.41
2016-09-02T10:05:40.044Z,1068.08
2016-09-02T10:07:03.520Z,1067.27
2016-09-02T10:08:16.561Z,1066.81
2016-09-02T10:09:34.056Z,1065.53
2016-09-02T10:10:51.656Z,1063.11
2016-09-02T10:12:09.145Z,1061.3
2016-09-02T10:13:26.548Z,1060.39
2016-09-02T10:14:43.107Z,1059.24
2016-09-02T10:15:58.576Z,1058.22
2016-09-02T10:17:14.970Z,1056.85
2016-09-02T10:18:32.023Z,1055.09
2016-09-02T10:19:48.078Z,1052.24
2016-09-02T10:21:02.554Z,1051.38
2016-09-02T10:22:18.378Z,1051.97
2016-09-02T10:23:35.440Z,1053.82
2016-09-02T10:24:51.845Z,1055.37
2016-09-02T10:26:07.890Z,1055.45
2016-09-02T10:27:25.472Z,1055.03
2016-09-02T10:28:41.538Z,1055.08
2016-09-02T10:30:00.877Z,1055.08
2016-09-02T10:31:18.807Z,1054.72
2016-09-02T10:32:34.264Z,1054.56
2016-09-02T10:33:50.832Z,1054.41
2016-09-02T10:35:09.931Z,1055.95
2016-09-02T10:36:28.286Z,1056.62
2016-09-02T10:37:45.917Z,1056.1
2016-09-02T10:39:05.544Z,1056.43
2016-09-02T10:40:29.777Z,1057.01
2016-09-02T10:41:50.627Z,1057.49
2016-09-02T10:43:10.833Z,1056.64
2016-09-02T10:44:32.743Z,1055.82
2016-09-02T10:45:54.902Z,1054.4
2016-09-02T10:47:15.133Z,1052.69
2016-09-02T10:48:33.529Z,1051.86
2016-09-02T10:49:58.568Z,1051.23
2016-09-02T10:51:18.585Z,1050.23
2016-09-02T10:52:40.381Z,1047.9
2016-09-02T10:54:00.110Z,1044.89
2016-09-02T10:55:21.025Z,1042.13
2016-09-02T10:56:42.406Z,1039.36
2016-09-02T10:58:02.113Z,1037.27
2016-09-02T10:59:21.684Z,1035.23
2016-09-02T11:00:42.417Z,1033.59
2016-09-02T11:02:04.544Z,1032.15
2016-09-02T11:03:26.483Z,1031.13
2016-09-02T11:04:43.829Z,1030.82
2016-09-02T11:06:17.486Z,1030.89
2016-09-02T11:07:16.548Z,1030.75
2016-09-02T11:08:28.211Z,1030.38
2016-09-02T11:10:14.369Z,1029.79
2016-09-02T11:12:03.654Z,1029.69
2016-09-02T11:14:24.731Z,1029.34
2016-09-02T11:18:25.758Z,1033.78
2016-09-02T11:20:59.314Z,1033.88
2016-09-02T11:24:33.675Z,1034.65
2016-09-02T11:25:31.749Z,1036.81
2016-09-02T11:26:31.547Z,1035.06
2016-09-02T11:27:25.550Z,1035.77
2016-09-02T11:28:37.298Z,1042.57
2016-09-02T11:29:29.926Z,1036.08
2016-09-02T11:30:41.059Z,1036.41
2016-09-02T11:32:16.929Z,1036.17
2016-09-02T11:33:51.309Z,1035.4
2016-09-02T11:35:19.033Z,1035.14
2016-09-02T11:36:40.293Z,1035.46
2016-09-02T11:37:53.036Z,1036.21
2016-09-02T11:39:11.883Z,1038.6
2016-09-02T11:40:28.445Z,1040.93
2016-09-02T11:41:43.214Z,1043.71
2016-09-02T11:42:59.841Z,1044.47
2016-09-02T11:44:16.360Z,1044.41
2016-09-02T11:45:36.646Z,1044.33
2016-09-02T11:46:53.729Z,1044.62
2016-09-02T11:48:13.141Z,1044.44
2016-09-02T11:49:33.144Z,1043.71
2016-09-02T11:50:54.297Z,1041.98
2016-09-02T11:52:17.265Z,1040.37
2016-09-02T11:53:37.202Z,1039.46
2016-09-02T11:54:59.108Z,1037.9
2016-09-02T11:56:27.114Z,1035.78
2016-09-02T11:57:50.747Z,1034.45
2016-09-02T11:59:46.738Z,1032.9
2016-09-02T12:01:10.274Z,1031.79
2016-09-02T12:02:31.958Z,1030.53
2016-09-02T12:03:54.031Z,1029.61
2016-09-02T12:05:17.177Z,1028.95
2016-09-02T12:06:37.138Z,1028.26
2016-09-02T12:07:59.688Z,1027.87
2016-09-02T12:09:19.482Z,1027.22
2016-09-02T12:10:35.485Z,1027.5
2016-09-02T12:11:55.035Z,1028.21
2016-09-02T12:13:12.707Z,1029.43
2016-09-02T12:14:32.232Z,1030.38
2016-09-02T12:15:51.330Z,1030.87
2016-09-02T12:17:11.066Z,1031.46
2016-09-02T12:18:29.473Z,1031.35
2016-09-02T12:19:48.010Z,1030.62
2016-09-02T12:21:09.247Z,1029.74
2016-09-02T12:22:30.928Z,1029.3
2016-09-02T12:23:52.408Z,1029.26
2016-09-02T12:25:14.470Z,1028.71
2016-09-02T12:26:36.087Z,1028.62
2016-09-02T12:27:58.056Z,1028.51
2016-09-02T12:29:21.787Z,1028
2016-09-02T12:30:47.947Z,1026.86
2016-09-02T12:32:12.411Z,1026.71
2016-09-02T12:33:32.858Z,1026.68
2016-09-02T12:34:54.001Z,1026.3
2016-09-02T12:36:17.706Z,1025.39
2016-09-02T12:37:36.894Z,1024.62
2016-09-02T12:39:00.065Z,1022.93
2016-09-02T12:40:23.287Z,1021.23
2016-09-02T12:41:42.628Z,1019.07
2016-09-02T12:43:01.156Z,1017.47
2016-09-02T12:44:22.857Z,1016.46
2016-09-02T12:45:45.017Z,1015.75
2016-09-02T12:47:09.558Z,1015.15
2016-09-02T12:48:31.131Z,1014.46
2016-09-02T12:49:55.962Z,1014.05
2016-09-02T12:51:19.192Z,1014.19
2016-09-02T12:52:43.531Z,1013.55
2016-09-02T12:54:06.926Z,1013.24
2016-09-02T12:55:06.836Z,1013.26
2016-09-02T12:56:07.010Z,1013.81
2016-09-02T12:57:19.082Z,1014.19
2016-09-02T12:58:40.964Z,1013.66
2016-09-02T13:00:03.400Z,1013.07
2016-09-02T13:01:25.981Z,1013.13
2016-09-02T13:02:48.621Z,1012.55
2016-09-02T13:04:06.644Z,1012.06
2016-09-02T13:05:28.991Z,1011.78
2016-09-02T13:06:50.984Z,1011.27
2016-09-02T13:08:11.469Z,1011.1
2016-09-02T13:09:32.259Z,1011.84
2016-09-02T13:10:51.283Z,1012.96
2016-09-02T13:12:13.140Z,1013.32
2016-09-02T13:13:34.397Z,1013.99
2016-09-02T13:14:55.116Z,1013.79
2016-09-02T13:16:19.340Z,1013.72
2016-09-02T13:17:39.541Z,1014.67
2016-09-02T13:19:00.989Z,1013.7
2016-09-02T13:20:22.408Z,1013.83